createdAt,value
2018-06-19T00:01:48.049Z,24.60
2018-06-19T00:04:52.474Z,24.10
2018-06-19T00:07:56.898Z,26.00
2018-06-19T00:11:01.346Z,24.23
2018-06-19T00:14:05.814Z,25.50
2018-06-19T00:17:10.237Z,23.30
2018-06-19T00:20:14.661Z,27.17
2018-06-19T00:23:19.089Z,25.93
2018-06-19T00:26:23.496Z,21.50
2018-06-19T00:29:27.917Z,23.47
2018-06-19T00:32:32.325Z,25.40
2018-06-19T00:35:36.733Z,22.30
2018-06-19T00:38:41.136Z,26.60
2018-06-19T00:41:45.539Z,19.17
2018-06-19T00:44:49.906Z,21.83
2018-06-19T00:47:54.471Z,24.50
2018-06-19T00:50:59.036Z,20.53
2018-06-19T00:54:04.286Z,22.60
2018-06-19T00:57:08.774Z,26.40
2018-06-19T01:00:13.185Z,24.67
2018-06-19T01:03:17.586Z,21.10
2018-06-19T01:06:22.009Z,21.67
2018-06-19T01:09:26.381Z,27.93
2018-06-19T01:12:30.780Z,23.63
2018-06-19T01:15:35.156Z,23.33
2018-06-19T01:18:39.572Z,27.37
2018-06-19T01:21:43.972Z,30.17
2018-06-19T01:24:48.365Z,24.47
2018-06-19T01:27:52.765Z,34.70
2018-06-19T01:30:57.181Z,26.80
2018-06-19T01:34:01.565Z,34.43
2018-06-19T01:37:06.012Z,35.37
2018-06-19T01:40:10.396Z,29.27
2018-06-19T01:43:14.793Z,28.07
2018-06-19T01:46:19.197Z,36.30
2018-06-19T01:49:23.591Z,30.47
2018-06-19T01:52:27.977Z,28.80
2018-06-19T01:55:32.377Z,31.03
2018-06-19T01:58:36.792Z,23.50
2018-06-19T02:01:41.205Z,29.37
2018-06-19T02:04:45.603Z,32.93
2018-06-19T02:07:49.984Z,24.27
2018-06-19T02:10:54.388Z,32.50
2018-06-19T02:13:58.784Z,28.97
2018-06-19T02:17:03.177Z,30.87
2018-06-19T02:20:08.206Z,29.40
2018-06-19T02:23:12.584Z,32.23
2018-06-19T02:26:16.949Z,28.17
2018-06-19T02:29:21.368Z,27.67
2018-06-19T02:32:25.777Z,31.90
2018-06-19T02:35:30.178Z,29.13
2018-06-19T02:38:34.577Z,26.33
2018-06-19T02:41:39.121Z,23.13
2018-06-19T02:44:43.560Z,25.60
2018-06-19T02:47:47.964Z,22.17
2018-06-19T02:50:52.356Z,25.47
2018-06-19T02:53:56.748Z,33.27
2018-06-19T02:57:01.259Z,23.60
2018-06-19T03:00:06.349Z,26.03
2018-06-19T03:03:10.725Z,26.53
2018-06-19T03:06:15.118Z,25.43
2018-06-19T03:09:19.520Z,26.27
2018-06-19T03:12:23.900Z,25.53
2018-06-19T03:15:28.280Z,28.47
2018-06-19T03:18:32.658Z,27.10
2018-06-19T03:21:37.102Z,29.00
2018-06-19T03:24:41.526Z,28.20
2018-06-19T03:27:45.907Z,33.63
2018-06-19T03:30:50.294Z,28.50
2018-06-19T03:33:54.786Z,28.37
2018-06-19T03:36:59.174Z,25.63
2018-06-19T03:40:03.604Z,24.67
2018-06-19T03:43:07.990Z,26.73
2018-06-19T03:46:12.445Z,28.10
2018-06-19T03:49:16.820Z,24.87
2018-06-19T03:52:21.205Z,27.87
2018-06-19T03:55:25.576Z,32.37
2018-06-19T03:58:29.981Z,27.33
2018-06-19T04:01:34.410Z,29.90
2018-06-19T04:04:38.812Z,20.47
2018-06-19T04:07:43.254Z,28.13
2018-06-19T04:10:47.629Z,26.73
2018-06-19T04:13:51.998Z,23.80
2018-06-19T04:16:56.373Z,28.60
2018-06-19T04:20:00.766Z,28.70
2018-06-19T04:23:05.145Z,28.13
2018-06-19T04:26:09.533Z,22.60
2018-06-19T04:29:13.905Z,29.50
2018-06-19T04:32:18.256Z,28.23
2018-06-19T04:35:22.697Z,28.73
2018-06-19T04:38:27.086Z,27.20
2018-06-19T04:41:31.458Z,26.97
2018-06-19T04:44:35.841Z,23.43
2018-06-19T04:47:40.216Z,33.30
2018-06-19T04:50:44.596Z,28.90
2018-06-19T04:53:48.992Z,29.97
2018-06-19T04:56:53.372Z,30.30
2018-06-19T04:59:57.509Z,30.40
2018-06-19T05:03:01.886Z,28.87
2018-06-19T05:06:06.310Z,31.07
2018-06-19T05:09:13.033Z,27.07
2018-06-19T05:12:17.420Z,29.17
2018-06-19T05:15:21.822Z,22.07
2018-06-19T05:18:26.215Z,33.00
2018-06-19T05:21:30.612Z,32.73
2018-06-19T05:24:35.009Z,28.13
2018-06-19T05:27:39.411Z,29.83
2018-06-19T05:30:43.805Z,33.17
2018-06-19T05:33:48.212Z,32.40
2018-06-19T05:36:52.597Z,38.23
2018-06-19T05:39:57.022Z,30.33
2018-06-19T05:43:01.404Z,29.23
2018-06-19T05:46:05.779Z,40.20
2018-06-19T05:49:10.172Z,34.40
2018-06-19T05:52:14.623Z,35.40
2018-06-19T05:55:18.989Z,33.40
2018-06-19T05:58:23.374Z,29.50
2018-06-19T06:01:27.819Z,36.33
2018-06-19T06:04:32.189Z,38.23
2018-06-19T06:07:36.597Z,27.90
2018-06-19T06:10:40.966Z,35.87
2018-06-19T06:13:45.354Z,33.30
2018-06-19T06:16:49.733Z,33.93
2018-06-19T06:19:54.108Z,39.33
2018-06-19T06:22:58.473Z,30.57
2018-06-19T06:26:02.862Z,30.83
2018-06-19T06:29:07.265Z,26.97
2018-06-19T06:32:11.669Z,32.93
2018-06-19T06:35:16.045Z,28.47
2018-06-19T06:38:20.454Z,31.50
2018-06-19T06:41:24.878Z,27.63
2018-06-19T06:44:29.307Z,25.60
2018-06-19T06:47:33.700Z,22.83
2018-06-19T06:50:38.130Z,25.03
2018-06-19T06:53:42.496Z,27.10
2018-06-19T06:56:46.902Z,25.60
2018-06-19T06:59:51.292Z,21.07
2018-06-19T07:02:55.668Z,18.93
2018-06-19T07:06:00.069Z,19.47
2018-06-19T07:09:06.862Z,20.10
2018-06-19T07:12:11.292Z,13.47
2018-06-19T07:15:15.677Z,15.43
2018-06-19T07:18:20.081Z,14.77
2018-06-19T07:21:24.457Z,13.70
2018-06-19T07:24:28.853Z,19.63
2018-06-19T07:27:33.227Z,16.13
2018-06-19T07:30:37.672Z,12.33
2018-06-19T07:33:42.050Z,12.57
2018-06-19T07:36:46.499Z,14.27
2018-06-19T07:39:50.858Z,13.23
2018-06-19T07:42:59.310Z,11.33
2018-06-19T07:46:03.691Z,10.30
2018-06-19T07:49:08.090Z,11.70
2018-06-19T07:52:12.483Z,7.50
2018-06-19T07:55:16.869Z,10.80
2018-06-19T07:58:21.285Z,12.73
2018-06-19T08:01:25.788Z,9.23
2018-06-19T08:04:30.149Z,12.07
2018-06-19T08:07:34.526Z,9.77
2018-06-19T08:10:38.917Z,8.40
2018-06-19T08:13:43.345Z,16.10
2018-06-19T08:16:47.732Z,9.67
2018-06-19T08:19:52.133Z,10.70
2018-06-19T08:22:56.528Z,11.20
2018-06-19T08:26:00.930Z,13.47
2018-06-19T08:29:05.292Z,15.60
2018-06-19T08:32:09.669Z,11.10
2018-06-19T08:35:14.089Z,10.93
2018-06-19T08:38:18.449Z,11.83
2018-06-19T08:41:22.615Z,11.63
2018-06-19T08:44:27.024Z,17.17
2018-06-19T08:47:31.468Z,11.40
2018-06-19T08:50:35.857Z,13.27
2018-06-19T08:53:40.258Z,12.23
2018-06-19T08:56:44.642Z,13.80
2018-06-19T08:59:49.034Z,12.53
2018-06-19T09:02:53.417Z,14.43
2018-06-19T09:05:57.800Z,10.37
2018-06-19T09:09:02.173Z,10.13
2018-06-19T09:12:06.686Z,8.20
2018-06-19T09:15:11.070Z,6.50
2018-06-19T09:18:15.474Z,9.60
2018-06-19T09:21:19.848Z,7.40
2018-06-19T09:24:24.209Z,6.53
2018-06-19T09:27:28.590Z,6.20
2018-06-19T09:30:32.953Z,7.37
2018-06-19T09:33:37.393Z,7.87
2018-06-19T09:36:41.776Z,8.60
2018-06-19T09:39:46.206Z,7.33
2018-06-19T09:42:50.524Z,7.30
2018-06-19T09:45:54.945Z,6.47
2018-06-19T09:48:59.353Z,7.00
2018-06-19T09:52:03.797Z,3.30
2018-06-19T09:55:08.210Z,4.57
2018-06-19T09:58:12.601Z,4.60
2018-06-19T10:01:16.974Z,6.90
2018-06-19T10:04:21.401Z,4.83
2018-06-19T10:07:25.773Z,3.87
2018-06-19T10:10:30.132Z,5.97
2018-06-19T10:13:34.554Z,4.53
2018-06-19T10:16:38.968Z,3.37
2018-06-19T10:19:43.409Z,2.27
2018-06-19T10:22:47.808Z,5.17
2018-06-19T10:25:52.161Z,3.17
2018-06-19T10:28:56.525Z,5.57
2018-06-19T10:32:00.937Z,2.10
2018-06-19T10:35:05.376Z,4.00
2018-06-19T10:38:09.779Z,2.67
2018-06-19T10:41:14.197Z,3.47
2018-06-19T10:44:18.577Z,5.03
2018-06-19T10:47:22.990Z,4.50
2018-06-19T10:50:27.402Z,4.80
2018-06-19T10:53:31.816Z,4.43
2018-06-19T10:56:36.213Z,5.83
2018-06-19T10:59:40.630Z,5.23
2018-06-19T11:02:45.025Z,5.03
2018-06-19T11:05:49.489Z,6.43
2018-06-19T11:08:53.908Z,4.23
2018-06-19T11:11:58.349Z,8.67
2018-06-19T11:15:02.792Z,6.50
2018-06-19T11:18:07.199Z,7.00
2018-06-19T11:21:11.368Z,9.23
2018-06-19T11:24:15.819Z,4.83
2018-06-19T11:27:20.262Z,5.83
2018-06-19T11:30:24.682Z,7.53
2018-06-19T11:33:29.288Z,12.90
2018-06-19T11:36:33.837Z,6.03
2018-06-19T11:39:38.836Z,4.23
2018-06-19T11:42:43.301Z,9.13
2018-06-19T11:45:47.798Z,6.90
2018-06-19T11:48:52.216Z,6.73
2018-06-19T11:51:56.644Z,8.03
2018-06-19T11:55:01.118Z,11.43
2018-06-19T11:58:05.714Z,7.67
2018-06-19T12:01:10.197Z,7.00
2018-06-19T12:04:14.593Z,7.30
2018-06-19T12:07:19.035Z,7.83
2018-06-19T12:10:23.497Z,6.30
2018-06-19T12:13:27.956Z,6.77
2018-06-19T12:16:32.425Z,9.70
2018-06-19T12:19:36.868Z,6.37
2018-06-19T12:22:41.344Z,8.07
2018-06-19T12:25:45.813Z,7.90
2018-06-19T12:28:50.337Z,11.87
2018-06-19T12:31:54.761Z,3.33
2018-06-19T12:34:59.210Z,7.50
2018-06-19T12:38:03.673Z,6.70
2018-06-19T12:41:08.134Z,13.63
2018-06-19T12:44:12.379Z,11.40
2018-06-19T12:47:16.817Z,8.23
2018-06-19T12:50:43.197Z,9.60
2018-06-19T12:55:06.729Z,9.80
2018-06-19T12:58:11.160Z,12.50
2018-06-19T13:01:15.628Z,10.47
2018-06-19T13:04:37.116Z,10.03
2018-06-19T13:07:43.580Z,14.20
2018-06-19T13:10:48.040Z,11.73
2018-06-19T13:14:09.401Z,15.20
2018-06-19T13:17:30.762Z,11.40
2018-06-19T13:20:49.460Z,10.73
2018-06-19T13:23:53.909Z,15.57
2018-06-19T13:26:58.306Z,17.73
2018-06-19T13:30:19.542Z,16.67
2018-06-19T13:33:23.967Z,12.43
2018-06-19T13:36:28.369Z,13.23
2018-06-19T13:39:33.184Z,14.60
2018-06-19T13:44:59.674Z,10.60
2018-06-19T13:48:04.119Z,23.50
2018-06-19T13:51:08.721Z,18.87
2018-06-19T13:54:13.140Z,14.10
2018-06-19T13:57:36.244Z,12.97
2018-06-19T14:00:40.697Z,14.03
2018-06-19T14:03:45.883Z,16.40
2018-06-19T14:06:50.388Z,18.23
2018-06-19T14:10:19.925Z,19.13
2018-06-19T14:13:24.345Z,18.30
2018-06-19T14:16:28.758Z,14.30
2018-06-19T14:19:33.141Z,15.30
2018-06-19T14:22:37.538Z,11.40
2018-06-19T14:25:42.001Z,9.10
2018-06-19T14:28:46.407Z,12.63
2018-06-19T14:31:50.844Z,14.63
2018-06-19T14:34:55.241Z,13.20
2018-06-19T14:37:59.631Z,20.03
2018-06-19T14:41:04.025Z,22.70
2018-06-19T14:44:08.400Z,11.80
2018-06-19T14:47:12.790Z,13.87
2018-06-19T14:50:17.204Z,11.87
2018-06-19T14:53:21.565Z,14.93
2018-06-19T14:56:25.938Z,15.83
2018-06-19T14:59:30.316Z,10.77
2018-06-19T15:02:34.786Z,12.80
2018-06-19T15:05:39.174Z,11.07
2018-06-19T15:08:43.566Z,18.17
2018-06-19T15:11:47.957Z,11.70
2018-06-19T15:14:52.357Z,8.43
2018-06-19T15:17:56.720Z,12.50
2018-06-19T15:21:01.058Z,12.83
2018-06-19T15:24:07.571Z,13.90
2018-06-19T15:27:12.507Z,14.23
2018-06-19T15:30:16.940Z,13.93
2018-06-19T15:33:21.340Z,17.17
2018-06-19T15:36:25.759Z,11.43
2018-06-19T15:39:30.154Z,9.77
2018-06-19T15:42:34.658Z,11.17
2018-06-19T15:45:39.132Z,12.33
2018-06-19T15:48:43.549Z,15.33
2018-06-19T15:51:47.967Z,13.90
2018-06-19T15:54:52.362Z,15.17
2018-06-19T15:57:56.766Z,10.40
2018-06-19T16:01:01.169Z,15.67
2018-06-19T16:04:05.606Z,11.03
2018-06-19T16:07:10.025Z,14.73
2018-06-19T16:10:14.430Z,12.00
2018-06-19T16:13:18.849Z,11.77
2018-06-19T16:16:23.255Z,12.47
2018-06-19T16:19:27.427Z,14.20
2018-06-19T16:22:31.804Z,8.40
2018-06-19T16:25:36.270Z,9.53
2018-06-19T16:28:40.667Z,11.47
2018-06-19T16:31:45.113Z,14.07
2018-06-19T16:34:49.479Z,17.90
2018-06-19T16:37:53.954Z,17.27
2018-06-19T16:40:58.328Z,17.40
2018-06-19T16:44:02.706Z,10.50
2018-06-19T16:47:07.085Z,11.47
2018-06-19T16:50:11.495Z,10.67
2018-06-19T16:53:15.880Z,12.70
2018-06-19T16:56:20.257Z,12.73
2018-06-19T16:59:24.637Z,12.17
2018-06-19T17:02:29.009Z,10.40
2018-06-19T17:05:33.514Z,12.77
2018-06-19T17:08:37.884Z,14.40
2018-06-19T17:11:42.286Z,14.70
2018-06-19T17:14:46.691Z,11.33
2018-06-19T17:17:51.060Z,11.30
2018-06-19T17:20:55.470Z,12.73
2018-06-19T17:24:00.033Z,14.27
2018-06-19T17:27:04.416Z,14.33
2018-06-19T17:30:08.802Z,14.43
2018-06-19T17:33:13.172Z,9.17
2018-06-19T17:36:17.561Z,12.87
2018-06-19T17:39:21.941Z,16.20
2018-06-19T17:42:26.393Z,15.47
2018-06-19T17:45:30.761Z,13.87
2018-06-19T17:48:35.154Z,13.37
2018-06-19T17:51:39.508Z,16.53
2018-06-19T17:54:43.900Z,13.53
2018-06-19T17:57:48.277Z,11.47
2018-06-19T18:00:52.649Z,12.67
2018-06-19T18:03:57.012Z,13.23
2018-06-19T18:07:01.398Z,13.93
2018-06-19T18:10:05.766Z,12.07
2018-06-19T18:13:10.136Z,13.17
2018-06-19T18:16:14.494Z,10.90
2018-06-19T18:19:18.890Z,11.57
2018-06-19T18:22:23.268Z,13.97
2018-06-19T18:25:27.649Z,12.40
2018-06-19T18:28:32.028Z,18.80
2018-06-19T18:31:36.400Z,16.70
2018-06-19T18:34:40.774Z,16.10
2018-06-19T18:37:45.128Z,10.90
2018-06-19T18:40:49.505Z,10.77
2018-06-19T18:43:53.892Z,14.93
2018-06-19T18:46:58.346Z,13.83
2018-06-19T18:50:02.696Z,14.17
2018-06-19T18:53:07.084Z,15.40
2018-06-19T18:56:11.477Z,16.80
2018-06-19T18:59:15.869Z,13.93
2018-06-19T19:02:20.256Z,9.93
2018-06-19T19:05:24.622Z,13.87
2018-06-19T19:08:29.010Z,15.00
2018-06-19T19:11:33.361Z,13.53
2018-06-19T19:14:43.007Z,16.80
2018-06-19T19:17:52.610Z,14.60
2018-06-19T19:20:57.888Z,15.13
2018-06-19T19:24:02.161Z,13.60
2018-06-19T19:27:11.708Z,13.53
2018-06-19T19:30:16.123Z,13.93
2018-06-19T19:33:20.501Z,14.20
2018-06-19T19:36:30.081Z,15.67
2018-06-19T19:39:34.482Z,12.13
2018-06-19T19:42:38.885Z,18.37
2018-06-19T19:45:43.257Z,16.63
2018-06-19T19:48:52.634Z,13.20
2018-06-19T19:51:57.035Z,13.40
2018-06-19T19:55:01.413Z,16.33
2018-06-19T19:58:10.905Z,13.50
2018-06-19T20:01:15.282Z,12.77
2018-06-19T20:04:19.677Z,15.10
2018-06-19T20:07:24.109Z,10.80
2018-06-19T20:10:28.505Z,12.07
2018-06-19T20:13:32.867Z,13.70
2018-06-19T20:16:37.225Z,18.37
2018-06-19T20:19:41.601Z,18.50
2018-06-19T20:22:45.985Z,16.30
2018-06-19T20:25:50.361Z,12.33
2018-06-19T20:28:54.798Z,12.50
2018-06-19T20:31:59.200Z,14.60
2018-06-19T20:35:03.612Z,16.17
2018-06-19T20:38:07.967Z,9.53
2018-06-19T20:41:13.418Z,11.93
2018-06-19T20:44:17.804Z,14.63
2018-06-19T20:47:22.202Z,15.13
2018-06-19T20:50:26.575Z,11.47
2018-06-19T20:53:30.937Z,13.33
2018-06-19T20:56:35.337Z,16.77
2018-06-19T20:59:40.027Z,16.40
2018-06-19T21:02:44.414Z,12.37
2018-06-19T21:05:48.796Z,15.13
2018-06-19T21:08:53.165Z,11.47
2018-06-19T21:11:57.560Z,13.57
2018-06-19T21:15:01.925Z,13.87
2018-06-19T21:18:06.321Z,13.20
2018-06-19T21:21:10.714Z,11.03
2018-06-19T21:24:15.117Z,15.57
2018-06-19T21:27:20.390Z,11.87
2018-06-19T21:30:24.815Z,9.23
2018-06-19T21:33:29.186Z,17.83
2018-06-19T21:36:33.565Z,18.37
2018-06-19T21:39:38.012Z,12.30
2018-06-19T21:42:42.438Z,17.90
2018-06-19T21:45:46.828Z,15.67
2018-06-19T21:48:51.230Z,15.47
2018-06-19T21:51:55.585Z,12.53
2018-06-19T21:55:00.009Z,16.10
2018-06-19T21:58:04.485Z,20.67
2018-06-19T22:01:08.636Z,15.77
2018-06-19T22:04:13.007Z,14.80
2018-06-19T22:07:17.417Z,12.57
2018-06-19T22:10:21.789Z,13.87
2018-06-19T22:13:26.188Z,19.23
2018-06-19T22:16:30.568Z,15.33
2018-06-19T22:19:34.959Z,12.77
2018-06-19T22:22:39.356Z,11.00
2018-06-19T22:25:43.722Z,14.63
2018-06-19T22:28:48.112Z,13.97
2018-06-19T22:31:52.452Z,14.17
2018-06-19T22:34:56.842Z,16.60
2018-06-19T22:38:01.185Z,19.10
2018-06-19T22:41:05.581Z,13.47
2018-06-19T22:44:09.985Z,10.40
2018-06-19T22:47:14.424Z,12.43
2018-06-19T22:50:18.800Z,13.90
2018-06-19T22:53:23.146Z,13.00
2018-06-19T22:56:27.557Z,18.23
2018-06-19T22:59:31.941Z,13.13
2018-06-19T23:02:36.321Z,15.03
2018-06-19T23:05:40.749Z,14.17
2018-06-19T23:08:45.117Z,14.80
2018-06-19T23:11:49.501Z,15.73
2018-06-19T23:14:53.867Z,16.80
2018-06-19T23:17:58.322Z,13.93
2018-06-19T23:21:02.693Z,15.10
2018-06-19T23:24:07.093Z,14.40
2018-06-19T23:27:11.465Z,10.80
2018-06-19T23:30:16.468Z,13.93
2018-06-19T23:33:20.864Z,10.20
2018-06-19T23:36:25.237Z,16.47
2018-06-19T23:39:29.595Z,11.93
2018-06-19T23:42:34.491Z,8.73
2018-06-19T23:45:38.887Z,17.10
2018-06-19T23:48:43.234Z,15.27
2018-06-19T23:51:47.634Z,13.53
2018-06-19T23:54:52.018Z,12.50
2018-06-19T23:57:56.385Z,12.87
